Time;durP1;ratioP1;P1;durP2;ratioP2;P2;SDS_P1;SDS_P2;PMS_P1;PMS_P2;Temp;Humidity;BMP_temperature;BMP_pressure;BME280_temperature;BME280_humidity;BME280_pressure;Samples;Min_cycle;Max_cycle;Signal;HPM_P1;HPM_P2
2021/08/20 00:02:01;;;;;;;51.08;25.38;;;;;;;16.82;93.13;101480.84;5083552;28;20451;-60
2021/08/20 00:04:27;;;;;;;48.85;24.88;;;;;;;16.66;94.54;101485.19;5083077;28;20467;-59
2021/08/20 00:06:54;;;;;;;50.92;25.23;;;;;;;16.78;94.78;101491.78;5088696;28;20836;-60
2021/08/20 00:09:22;;;;;;;50.05;24.10;;;;;;;17.07;90.23;101486.88;5098387;28;20551;-61
2021/08/20 00:11:48;;;;;;;48.42;24.70;;;;;;;16.96;91.77;101493.41;5082726;28;20096;-61
2021/08/20 00:14:16;;;;;;;43.22;23.80;;;;;;;16.77;92.96;101497.25;5093090;28;20351;-60
2021/08/20 00:16:43;;;;;;;39.90;21.80;;;;;;;16.76;93.17;101501.72;5085352;28;20051;-62
2021/08/20 00:19:10;;;;;;;43.10;22.77;;;;;;;16.70;92.70;101501.56;5089569;28;20409;-62
2021/08/20 00:21:37;;;;;;;42.60;23.77;;;;;;;16.69;93.29;101492.78;5086426;28;21191;-62
2021/08/20 00:24:05;;;;;;;46.28;24.52;;;;;;;16.88;92.84;101486.31;5075835;28;20071;-62
2021/08/20 00:26:32;;;;;;;47.20;23.95;;;;;;;16.96;91.01;101486.25;5069113;28;20130;-62
2021/08/20 00:28:59;;;;;;;41.60;23.52;;;;;;;16.89;91.04;101489.78;5086799;28;20090;-62
2021/08/20 00:31:25;;;;;;;43.95;24.42;;;;;;;16.99;91.10;101474.50;5081544;28;20519;-62
2021/08/20 00:33:52;;;;;;;47.38;24.48;;;;;;;16.88;91.85;101480.19;5081445;28;20056;-61
2021/08/20 00:36:18;;;;;;;44.72;24.75;;;;;;;16.93;92.69;101486.59;5101306;28;20131;-60
2021/08/20 00:38:45;;;;;;;47.38;24.27;;;;;;;17.15;90.05;101486.84;5083113;28;20768;-60
2021/08/20 00:41:12;;;;;;;42.40;23.02;;;;;;;17.12;90.24;101480.06;5083227;28;20135;-61
2021/08/20 00:43:44;;;;;;;44.78;23.08;;;;;;;17.05;90.98;101484.38;5093665;28;20150;-62
2021/08/20 00:46:10;;;;;;;45.95;24.10;;;;;;;16.88;90.93;101478.34;5080598;28;20056;-62
2021/08/20 00:48:39;;;;;;;45.35;23.75;;;;;;;16.61;92.26;101476.94;5094066;28;20051;-62
2021/08/20 00:51:13;;;;;;;51.83;24.05;;;;;;;16.42;92.56;101472.81;5075636;28;20154;-62
2021/08/20 00:53:39;;;;;;;39.03;22.23;;;;;;;16.40;93.77;101473.00;5097034;28;20505;-62
2021/08/20 00:56:06;;;;;;;44.67;24.48;;;;;;;16.41;92.26;101469.34;5084131;28;20060;-62
2021/08/20 00:58:33;;;;;;;38.22;21.80;;;;;;;16.48;91.08;101466.03;5088268;28;20138;-61
2021/08/20 01:01:00;;;;;;;39.10;21.55;;;;;;;16.56;90.83;101464.19;5082850;28;20620;-62
2021/08/20 01:03:28;;;;;;;37.80;21.13;;;;;;;16.45;91.55;101461.09;5094398;28;20501;-61
2021/08/20 01:05:55;;;;;;;38.03;20.63;;;;;;;16.40;92.43;101462.41;5096650;28;20061;-61
2021/08/20 01:08:26;;;;;;;39.95;20.92;;;;;;;16.49;90.68;101463.22;5088416;28;20167;-62
2021/08/20 01:10:56;;;;;;;35.75;20.75;;;;;;;16.61;91.96;101471.63;5091992;28;20138;-60
2021/08/20 01:13:23;;;;;;;40.35;20.58;;;;;;;16.50;91.79;101469.34;5074473;28;20138;-62
2021/08/20 01:15:52;;;;;;;36.83;20.20;;;;;;;16.74;89.50;101468.41;5097806;28;20623;-62
2021/08/20 01:18:23;;;;;;;42.70;20.38;;;;;;;16.49;91.98;101471.16;5090585;28;20048;-62
2021/08/20 01:20:54;;;;;;;43.30;20.88;;;;;;;16.38;92.52;101472.34;5106235;27;20471;-62
2021/08/20 01:23:24;;;;;;;36.03;20.95;;;;;;;16.92;89.03;101466.41;5087906;28;20131;-61
2021/08/20 01:25:52;;;;;;;39.85;21.55;;;;;;;17.00;88.34;101466.38;5099432;27;20134;-62
2021/08/20 01:28:21;;;;;;;40.70;20.75;;;;;;;17.16;87.92;101457.50;5097903;28;20158;-62
2021/08/20 01:30:48;;;;;;;35.13;19.88;;;;;;;17.29;86.44;101454.28;5081714;28;20108;-62
2021/08/20 01:33:15;;;;;;;36.47;18.63;;;;;;;17.08;86.85;101462.03;5097223;28;20058;-62
2021/08/20 01:35:42;;;;;;;35.30;19.67;;;;;;;17.18;85.59;101465.28;5080429;28;20550;-62
2021/08/20 01:38:08;;;;;;;35.70;19.05;;;;;;;17.11;86.23;101459.88;5092803;28;20158;-61
2021/08/20 01:40:35;;;;;;;36.63;20.40;;;;;;;17.24;86.23;101469.06;5081487;28;20107;-60
2021/08/20 01:43:01;;;;;;;37.40;22.10;;;;;;;17.13;86.79;101472.94;5097014;28;20047;-60
2021/08/20 01:45:28;;;;;;;37.45;19.70;;;;;;;16.73;87.89;101469.44;5088192;28;20138;-62
2021/08/20 01:47:54;;;;;;;45.22;20.75;;;;;;;16.55;90.35;101470.47;5088644;28;20047;-61
2021/08/20 01:50:21;;;;;;;42.50;19.90;;;;;;;16.56;90.98;101473.94;5086600;28;20135;-61
2021/08/20 01:52:47;;;;;;;34.53;19.77;;;;;;;16.64;90.72;101476.59;5082171;28;20050;-61
2021/08/20 01:55:14;;;;;;;36.25;20.30;;;;;;;16.33;93.15;101471.22;5084685;28;20408;-62
2021/08/20 01:57:41;;;;;;;39.78;20.75;;;;;;;16.25;93.23;101482.63;5086341;28;20130;-62
2021/08/20 02:00:09;;;;;;;34.40;20.70;;;;;;;16.28;93.14;101477.00;5088904;28;20074;-62
2021/08/20 02:02:35;;;;;;;37.58;20.45;;;;;;;16.29;92.72;101478.66;5094271;28;20609;-60
2021/08/20 02:05:03;;;;;;;33.83;20.05;;;;;;;16.28;91.61;101469.03;5082435;28;20414;-62
2021/08/20 02:07:34;;;;;;;40.25;21.65;;;;;;;16.21;92.53;101468.09;5099129;28;20480;-62
2021/08/20 02:10:04;;;;;;;40.25;20.27;;;;;;;16.33;92.23;101457.97;5091801;28;20083;-62
2021/08/20 02:12:31;;;;;;;41.53;21.80;;;;;;;16.41;89.77;101455.31;5093444;28;20134;-60
2021/08/20 02:14:57;;;;;;;37.03;20.30;;;;;;;16.40;90.43;101459.75;5082547;28;20400;-61
2021/08/20 02:17:23;;;;;;;38.75;21.90;;;;;;;16.37;91.45;101461.94;5088789;28;20135;-62
2021/08/20 02:19:50;;;;;;;40.78;21.45;;;;;;;16.17;92.85;101472.88;5090338;27;20052;-61
2021/08/20 02:22:16;;;;;;;42.28;22.67;;;;;;;16.40;91.67;101464.22;5090061;28;20083;-61
2021/08/20 02:24:43;;;;;;;39.03;21.83;;;;;;;16.37;92.02;101469.88;5092678;28;20130;-59
2021/08/20 02:27:09;;;;;;;41.15;21.48;;;;;;;16.18;92.80;101471.06;5087921;27;20055;-57
2021/08/20 02:29:36;;;;;;;40.50;23.27;;;;;;;16.33;91.52;101466.72;5089207;28;20159;-61
2021/08/20 02:32:03;;;;;;;47.10;23.85;;;;;;;16.37;91.57;101465.41;5077992;28;20153;-59
2021/08/20 02:34:29;;;;;;;45.67;22.23;;;;;;;16.33;91.76;101466.72;5073461;28;20496;-61
2021/08/20 02:36:56;;;;;;;46.00;23.58;;;;;;;16.25;91.54;101465.91;5066239;28;20086;-62
2021/08/20 02:39:22;;;;;;;47.70;23.77;;;;;;;16.26;92.44;101468.38;5093629;28;20043;-61
2021/08/20 02:41:48;;;;;;;43.38;25.00;;;;;;;16.39;92.52;101470.53;5089862;28;20473;-62
2021/08/20 02:44:15;;;;;;;50.65;23.63;;;;;;;16.49;90.61;101473.00;5088887;28;20126;-61
2021/08/20 02:46:42;;;;;;;45.08;24.70;;;;;;;16.44;90.95;101468.19;5094535;28;20052;-62
2021/08/20 02:49:08;;;;;;;44.83;24.55;;;;;;;16.32;91.64;101461.59;5084737;28;20056;-62
2021/08/20 02:51:34;;;;;;;50.33;24.90;;;;;;;16.18;93.54;101461.28;5090648;28;20135;-62
2021/08/20 02:54:04;;;;;;;53.60;27.13;;;;;;;16.23;92.89;101458.16;5094664;28;20570;-61
2021/08/20 02:56:30;;;;;;;52.40;27.45;;;;;;;16.14;94.06;101464.44;5094308;28;20546;-61
2021/08/20 02:58:57;;;;;;;48.10;25.38;;;;;;;16.15;94.01;101463.44;5095094;28;20062;-62
2021/08/20 03:01:23;;;;;;;51.15;27.85;;;;;;;16.29;93.23;101464.56;5081750;28;20139;-62
2021/08/20 03:03:53;;;;;;;54.80;26.88;;;;;;;16.40;92.84;101467.69;5097417;28;20384;-60
2021/08/20 03:06:19;;;;;;;53.88;26.25;;;;;;;16.46;92.88;101474.13;5083329;28;20098;-62
2021/08/20 03:08:46;;;;;;;57.42;28.55;;;;;;;16.51;91.68;101465.72;5068477;28;20482;-62
2021/08/20 03:11:13;;;;;;;50.78;26.85;;;;;;;16.55;91.78;101465.19;5083193;28;20130;-60
2021/08/20 03:13:39;;;;;;;59.58;27.65;;;;;;;16.60;92.47;101462.88;5094975;28;20378;-62
2021/08/20 03:16:06;;;;;;;53.47;26.70;;;;;;;16.75;91.57;101456.84;5084163;28;20079;-62
2021/08/20 03:18:32;;;;;;;58.72;27.65;;;;;;;16.91;91.03;101456.78;5094016;27;20051;-62
2021/08/20 03:20:59;;;;;;;61.10;28.38;;;;;;;16.91;90.44;101456.78;5081472;28;20051;-60
2021/08/20 03:23:25;;;;;;;52.38;27.35;;;;;;;16.64;91.95;101459.84;5081584;28;20139;-62
2021/08/20 03:25:52;;;;;;;59.35;28.83;;;;;;;16.67;93.75;101456.88;5074128;27;20170;-61
2021/08/20 03:28:18;;;;;;;57.67;28.70;;;;;;;16.52;95.18;101467.34;5086281;28;20142;-62
2021/08/20 03:30:45;;;;;;;62.35;29.50;;;;;;;16.26;97.55;101464.94;5089138;28;20079;-60
2021/08/20 03:33:12;;;;;;;59.88;27.85;;;;;;;16.35;97.76;101463.94;5084212;28;20228;-61
2021/08/20 03:35:39;;;;;;;61.13;28.95;;;;;;;16.19;98.43;101460.31;5088388;28;20055;-61
2021/08/20 03:38:05;;;;;;;72.32;31.77;;;;;;;16.29;98.76;101454.84;5095618;28;20493;-61
2021/08/20 03:40:32;;;;;;;62.42;28.77;;;;;;;16.40;97.76;101451.81;5088206;28;20146;-62
2021/08/20 03:42:58;;;;;;;73.85;31.17;;;;;;;16.43;97.75;101453.31;5097804;28;20051;-62
2021/08/20 03:45:24;;;;;;;70.05;29.60;;;;;;;16.63;96.18;101456.38;5081089;28;20084;-62
2021/08/20 03:47:51;;;;;;;61.17;29.10;;;;;;;16.63;96.01;101460.88;5093719;28;20054;-62
2021/08/20 03:50:18;;;;;;;64.80;29.80;;;;;;;16.55;96.46;101465.19;5074461;28;20698;-61
2021/08/20 03:52:44;;;;;;;69.35;33.38;;;;;;;16.46;96.95;101471.50;5095513;28;20082;-60
2021/08/20 03:55:10;;;;;;;55.88;25.80;;;;;;;16.51;96.66;101463.88;5087635;28;20052;-60
2021/08/20 03:57:37;;;;;;;71.63;31.25;;;;;;;16.77;95.98;101468.09;5084540;28;20054;-59
2021/08/20 04:00:05;;;;;;;67.30;30.88;;;;;;;16.73;95.71;101466.78;5091536;28;20047;-62
2021/08/20 04:02:33;;;;;;;65.45;30.50;;;;;;;16.70;96.11;101460.03;5078420;28;20065;-61
2021/08/20 04:05:00;;;;;;;80.20;31.50;;;;;;;16.93;94.97;101462.75;5089819;28;20157;-62
2021/08/20 04:07:26;;;;;;;63.08;29.73;;;;;;;16.90;94.70;101452.50;5087672;28;20499;-62
2021/08/20 04:09:53;;;;;;;70.55;30.45;;;;;;;16.80;95.64;101463.28;5094508;28;20079;-62
2021/08/20 04:12:19;;;;;;;74.05;30.80;;;;;;;16.91;95.57;101461.28;5088973;28;20142;-59
2021/08/20 04:14:45;;;;;;;67.72;32.17;;;;;;;16.86;95.50;101461.81;5089180;28;20139;-61
2021/08/20 04:17:12;;;;;;;70.55;30.77;;;;;;;16.66;96.31;101460.50;5089115;28;20093;-62
2021/08/20 04:19:39;;;;;;;70.63;32.00;;;;;;;16.71;96.18;101466.94;5095921;28;20551;-60
2021/08/20 04:22:05;;;;;;;66.05;30.42;;;;;;;16.80;96.56;101473.88;5097268;28;20488;-62
2021/08/20 04:24:32;;;;;;;67.05;29.42;;;;;;;16.91;95.67;101470.03;5084074;28;20135;-61
2021/08/20 04:26:58;;;;;;;67.57;30.10;;;;;;;17.48;91.22;101463.59;5093710;28;20147;-62
2021/08/20 04:29:24;;;;;;;67.95;31.20;;;;;;;17.36;92.35;101478.28;5086532;28;20086;-62
2021/08/20 04:31:51;;;;;;;65.32;30.70;;;;;;;17.52;90.73;101472.03;5087808;28;20139;-61
2021/08/20 04:34:18;;;;;;;69.40;30.30;;;;;;;17.18;93.43;101473.25;5089477;28;20273;-61
2021/08/20 04:36:44;;;;;;;71.18;32.03;;;;;;;17.03;93.88;101474.97;5083663;28;20052;-60
2021/08/20 04:39:10;;;;;;;64.55;30.42;;;;;;;16.85;96.24;101476.03;5096385;28;20048;-61
2021/08/20 04:41:37;;;;;;;67.65;31.27;;;;;;;16.77;96.66;101489.28;5081594;28;20167;-61
2021/08/20 04:44:03;;;;;;;70.72;30.85;;;;;;;16.74;96.81;101484.31;5084574;28;20083;-62
2021/08/20 04:46:30;;;;;;;65.40;29.77;;;;;;;16.88;96.86;101490.78;5078700;28;20181;-64
2021/08/20 04:48:56;;;;;;;68.32;30.55;;;;;;;16.80;97.00;101494.25;5096957;28;20055;-61
2021/08/20 04:51:23;;;;;;;66.80;29.45;;;;;;;17.11;96.70;101494.34;5096855;28;20047;-62
2021/08/20 04:53:51;;;;;;;73.82;31.10;;;;;;;17.40;93.28;101492.84;5089813;28;20094;-61
2021/08/20 04:56:17;;;;;;;71.35;31.52;;;;;;;17.55;91.54;101499.03;5092809;28;20073;-62
2021/08/20 04:58:44;;;;;;;59.45;28.42;;;;;;;17.49;92.26;101499.75;5093899;28;20414;-62
2021/08/20 05:01:11;;;;;;;69.13;30.35;;;;;;;17.67;90.90;101502.09;5096459;28;20142;-62
2021/08/20 05:03:37;;;;;;;62.88;28.02;;;;;;;17.73;90.16;101493.44;5089083;28;20134;-59
2021/08/20 05:06:05;;;;;;;67.75;29.60;;;;;;;17.58;91.24;101493.41;5090272;28;20445;-61
2021/08/20 05:08:31;;;;;;;71.13;31.17;;;;;;;18.02;88.65;101493.75;5093986;28;20056;-62
2021/08/20 05:10:58;;;;;;;73.35;32.30;;;;;;;17.74;89.50;101497.75;5082917;28;20131;-61
2021/08/20 05:13:24;;;;;;;72.05;31.20;;;;;;;17.39;93.29;101501.81;5093198;28;20158;-61
2021/08/20 05:15:50;;;;;;;69.60;30.13;;;;;;;17.40;93.67;101511.41;5074555;28;20167;-62
2021/08/20 05:18:17;;;;;;;65.05;30.52;;;;;;;17.70;92.84;101503.56;5100206;27;20069;-60
2021/08/20 05:20:43;;;;;;;70.85;30.77;;;;;;;17.62;92.71;101509.78;5081921;28;20051;-61
2021/08/20 05:23:10;;;;;;;70.13;28.42;;;;;;;17.34;94.62;101509.44;5104802;28;20078;-62
2021/08/20 05:25:37;;;;;;;77.15;30.23;;;;;;;17.88;91.74;101519.25;5087550;27;20602;-62
2021/08/20 05:28:04;;;;;;;78.18;32.42;;;;;;;17.62;92.47;101523.06;5093968;27;20048;-61
2021/08/20 05:30:30;;;;;;;82.22;32.60;;;;;;;17.51;93.98;101526.09;5099236;28;20134;-61
2021/08/20 05:32:57;;;;;;;77.68;31.38;;;;;;;17.34;96.04;101522.69;5090161;28;20143;-62
2021/08/20 05:35:24;;;;;;;65.70;28.48;;;;;;;17.77;93.01;101515.97;5090106;28;20076;-62
2021/08/20 05:37:52;;;;;;;74.35;30.30;;;;;;;17.70;93.15;101516.84;5090241;28;20052;-62
2021/08/20 05:40:19;;;;;;;74.38;30.58;;;;;;;17.43;94.89;101515.53;5088875;28;20877;-60
2021/08/20 05:42:45;;;;;;;91.32;32.58;;;;;;;17.48;95.65;101515.81;5083731;28;20044;-62
2021/08/20 05:45:12;;;;;;;75.20;29.88;;;;;;;17.48;93.72;101513.16;5088156;28;20043;-62
2021/08/20 05:47:39;;;;;;;75.40;30.25;;;;;;;17.23;96.56;101521.28;5096674;28;20910;-62
2021/08/20 05:50:07;;;;;;;69.22;30.05;;;;;;;16.92;99.52;101522.06;5092599;28;20131;-60
2021/08/20 05:52:36;;;;;;;72.60;29.75;;;;;;;16.75;100.00;101517.78;5098406;28;20148;-62
2021/08/20 05:55:04;;;;;;;73.80;30.02;;;;;;;16.72;100.00;101520.75;5080894;28;20151;-61
2021/08/20 05:57:30;;;;;;;79.95;29.80;;;;;;;16.94;100.00;101527.19;5091194;28;20752;-61
2021/08/20 05:59:57;;;;;;;73.07;30.50;;;;;;;17.23;98.80;101528.38;5089751;28;20669;-62
2021/08/20 06:02:23;;;;;;;71.05;28.92;;;;;;;17.13;98.91;101537.41;5095941;28;20047;-57
2021/08/20 06:04:50;;;;;;;78.82;32.40;;;;;;;17.10;99.19;101539.56;5090071;28;20044;-61
2021/08/20 06:07:17;;;;;;;75.88;31.40;;;;;;;17.23;99.73;101546.94;5093512;28;20130;-62
2021/08/20 06:09:46;;;;;;;83.38;31.40;;;;;;;17.44;97.61;101538.41;5093852;28;20087;-62
2021/08/20 06:12:14;;;;;;;80.30;30.70;;;;;;;17.40;97.34;101551.16;5083482;28;20079;-62
2021/08/20 06:14:40;;;;;;;81.65;30.50;;;;;;;17.39;97.36;101547.69;5089368;28;20050;-62
2021/08/20 06:17:07;;;;;;;72.68;28.88;;;;;;;17.59;96.17;101539.31;5090406;28;20052;-62
2021/08/20 06:19:33;;;;;;;76.78;30.33;;;;;;;17.51;96.26;101542.00;5100551;27;20118;-62
2021/08/20 06:22:00;;;;;;;74.82;29.17;;;;;;;17.60;96.41;101543.59;5092957;28;20105;-61
2021/08/20 06:24:26;;;;;;;73.35;28.85;;;;;;;17.50;97.07;101540.34;5075682;28;20346;-61
2021/08/20 06:26:53;;;;;;;76.18;28.88;;;;;;;17.51;96.40;101548.13;5097876;27;20452;-62
2021/08/20 06:29:20;;;;;;;67.68;28.65;;;;;;;17.53;97.37;101545.31;5079857;28;20139;-60
2021/08/20 06:31:47;;;;;;;70.82;30.90;;;;;;;17.71;95.90;101543.19;5097637;28;20589;-62
2021/08/20 06:34:15;;;;;;;68.45;28.10;;;;;;;17.51;97.10;101539.38;5077977;28;20044;-60
2021/08/20 06:36:43;;;;;;;63.65;27.48;;;;;;;17.88;96.02;101541.31;5091382;28;20054;-62
2021/08/20 06:39:10;;;;;;;56.13;24.67;;;;;;;17.67;96.17;101530.47;5081839;28;20091;-62
2021/08/20 06:41:37;;;;;;;71.20;27.63;;;;;;;17.52;97.23;101533.88;5091247;28;20143;-62
2021/08/20 06:44:04;;;;;;;63.33;26.05;;;;;;;17.63;97.07;101540.59;5085504;28;20418;-61
2021/08/20 06:46:30;;;;;;;60.10;25.80;;;;;;;17.66;99.65;101537.63;5084926;27;20170;-62
2021/08/20 06:48:57;;;;;;;58.95;24.95;;;;;;;17.88;97.94;101543.97;5086146;28;20135;-62
2021/08/20 06:51:23;;;;;;;61.80;25.70;;;;;;;18.04;96.68;101543.00;5083306;28;20135;-61
2021/08/20 06:53:50;;;;;;;57.40;25.90;;;;;;;18.35;95.43;101542.91;5085641;28;20150;-62
2021/08/20 06:56:16;;;;;;;61.75;25.95;;;;;;;18.45;94.40;101542.66;5088473;28;20162;-63
2021/08/20 06:58:43;;;;;;;60.13;24.20;;;;;;;18.47;92.44;101545.94;5091645;28;20139;-62
2021/08/20 07:01:09;;;;;;;63.45;26.15;;;;;;;18.55;91.58;101543.22;5092554;28;20058;-62
2021/08/20 07:03:36;;;;;;;57.78;24.73;;;;;;;18.66;90.81;101547.25;5084239;28;20144;-63
2021/08/20 07:06:03;;;;;;;57.78;24.67;;;;;;;18.25;93.87;101549.47;5090614;28;20542;-62
2021/08/20 07:08:30;;;;;;;52.80;23.75;;;;;;;18.25;95.44;101544.16;5075176;28;20475;-59
2021/08/20 07:10:56;;;;;;;61.38;24.10;;;;;;;18.14;96.02;101548.06;5096154;28;20130;-62
2021/08/20 07:13:23;;;;;;;53.25;24.42;;;;;;;18.21;96.18;101548.16;5084090;28;20134;-62
2021/08/20 07:15:49;;;;;;;57.00;24.25;;;;;;;18.28;96.74;101551.78;5093323;28;20475;-60
2021/08/20 07:18:16;;;;;;;56.53;24.67;;;;;;;18.43;95.87;101549.97;5098137;27;20116;-62
2021/08/20 07:20:42;;;;;;;53.83;24.00;;;;;;;18.58;96.08;101548.16;5081633;28;20096;-62
2021/08/20 07:23:09;;;;;;;57.17;22.98;;;;;;;18.58;94.73;101553.47;5091314;28;20735;-62
2021/08/20 07:25:35;;;;;;;52.80;22.90;;;;;;;18.82;93.62;101561.38;5084059;28;20104;-62
2021/08/20 07:28:02;;;;;;;56.92;23.27;;;;;;;18.74;93.68;101562.31;5093662;27;20142;-62
2021/08/20 07:30:28;;;;;;;58.42;24.55;;;;;;;18.60;94.57;101563.09;5086191;28;20131;-62
2021/08/20 07:32:55;;;;;;;58.40;25.75;;;;;;;18.72;93.96;101570.44;5088963;28;20126;-63
2021/08/20 07:35:21;;;;;;;56.67;25.10;;;;;;;18.69;93.01;101562.81;5082985;28;20330;-63
2021/08/20 07:37:48;;;;;;;54.28;25.48;;;;;;;18.96;92.46;101566.72;5083000;28;20091;-63
2021/08/20 07:40:14;;;;;;;55.53;26.23;;;;;;;19.13;91.46;101564.72;5090174;28;20135;-62
2021/08/20 07:42:41;;;;;;;62.55;26.42;;;;;;;19.16;90.41;101566.97;5090914;28;20143;-62
2021/08/20 07:45:08;;;;;;;60.03;25.65;;;;;;;19.14;90.52;101569.00;5088389;28;20048;-63
2021/08/20 07:47:48;;;;;;;55.67;26.10;;;;;;;18.92;90.86;101570.75;5087430;28;20138;-62
2021/08/20 07:50:16;;;;;;;51.58;25.80;;;;;;;18.91;91.79;101576.25;5080986;28;20556;-63
2021/08/20 07:52:46;;;;;;;53.90;27.98;;;;;;;19.08;91.99;101574.25;5076569;28;20167;-63
2021/08/20 07:55:14;;;;;;;53.55;26.95;;;;;;;19.04;91.48;101580.94;5093830;28;20487;-61
2021/08/20 07:57:52;;;;;;;47.58;25.33;;;;;;;19.06;91.11;101577.09;5088911;28;20048;-63
2021/08/20 08:00:24;;;;;;;58.78;26.23;;;;;;;19.19;91.53;101589.75;5076826;28;20338;-62
2021/08/20 08:02:51;;;;;;;50.22;26.00;;;;;;;19.35;90.94;101588.72;5085787;28;20047;-62
2021/08/20 08:05:20;;;;;;;48.88;25.63;;;;;;;19.55;88.91;101592.41;5082112;28;20120;-63
2021/08/20 08:07:47;;;;;;;44.08;22.45;;;;;;;19.61;88.74;101592.69;5089498;28;20132;-62
2021/08/20 08:10:14;;;;;;;50.45;24.70;;;;;;;19.63;88.59;101588.00;5087611;28;20510;-62
2021/08/20 08:12:41;;;;;;;46.08;23.27;;;;;;;19.72;89.88;101592.25;5089380;28;20595;-63
2021/08/20 08:15:09;;;;;;;46.53;24.52;;;;;;;19.71;89.25;101590.56;5074302;28;20047;-63
2021/08/20 08:17:36;;;;;;;;;;;;;;;19.96;88.57;101591.06;5101747;27;20480;-63
2021/08/20 08:20:05;;;;;;;50.00;24.80;;;;;;;20.01;86.51;101590.47;5089048;28;20196;-63
2021/08/20 08:22:31;;;;;;;50.08;24.88;;;;;;;19.99;87.24;101590.66;5088370;28;20062;-63
2021/08/20 08:24:58;;;;;;;43.50;24.80;;;;;;;20.09;85.93;101595.66;5095744;28;20044;-63
2021/08/20 08:27:25;;;;;;;48.95;24.80;;;;;;;20.76;85.37;101599.75;5068267;28;20066;-63
2021/08/20 08:29:51;;;;;;;45.03;24.00;;;;;;;20.69;82.54;101593.53;5072820;28;20481;-63
2021/08/20 08:32:18;;;;;;;46.30;25.42;;;;;;;20.50;82.77;101589.66;5087632;28;20052;-62
2021/08/20 08:34:44;;;;;;;46.20;24.17;;;;;;;20.56;83.17;101594.22;5070893;28;20471;-63
2021/08/20 08:37:12;;;;;;;50.20;25.75;;;;;;;20.52;81.79;101584.97;5098795;28;20147;-63
2021/08/20 08:39:40;;;;;;;44.80;23.73;;;;;;;20.50;83.10;101585.19;5072035;28;20087;-63
2021/08/20 08:42:07;;;;;;;44.50;23.58;;;;;;;20.26;84.85;101593.56;5084367;28;20142;-63
2021/08/20 08:44:36;;;;;;;52.85;24.58;;;;;;;19.99;86.96;101595.16;5080500;28;20079;-63
2021/08/20 08:47:05;;;;;;;39.85;20.77;;;;;;;20.17;86.91;101592.91;5092347;28;20141;-63
2021/08/20 08:49:32;;;;;;;51.63;24.63;;;;;;;20.41;85.52;101593.50;5081875;28;20415;-63
2021/08/20 08:51:58;;;;;;;46.25;22.70;;;;;;;20.32;85.48;101588.28;5091286;28;20087;-62
2021/08/20 08:54:25;;;;;;;45.67;24.00;;;;;;;20.81;83.95;101583.97;5080160;28;20048;-63
2021/08/20 08:56:51;;;;;;;45.05;23.65;;;;;;;20.83;83.79;101587.25;5093566;28;20122;-63
2021/08/20 08:59:18;;;;;;;42.05;22.27;;;;;;;21.29;83.91;101586.69;5080054;28;20071;-63
2021/08/20 09:01:45;;;;;;;54.35;26.13;;;;;;;21.46;80.86;101591.69;5087658;28;20048;-63
2021/08/20 09:04:15;;;;;;;49.92;26.88;;;;;;;21.91;77.57;101589.34;5085008;28;20059;-63
2021/08/20 09:06:50;;;;;;;46.72;24.83;;;;;;;22.24;77.25;101586.75;5091848;28;20454;-63
2021/08/20 09:09:20;;;;;;;47.20;24.05;;;;;;;22.23;75.02;101595.78;5085150;28;20079;-63
2021/08/20 09:11:51;;;;;;;43.58;23.67;;;;;;;21.96;75.13;101596.78;5079812;28;20426;-63
2021/08/20 09:14:19;;;;;;;45.97;24.25;;;;;;;22.01;75.77;101596.97;5086161;28;20059;-63
2021/08/20 09:16:47;;;;;;;50.92;26.85;;;;;;;22.08;74.37;101597.81;5096317;28;20518;-61
2021/08/20 09:19:21;;;;;;;42.30;22.73;;;;;;;22.17;72.49;101604.63;5068011;28;20556;-63
2021/08/20 09:22:07;;;;;;;39.72;20.33;;;;;;;21.96;73.49;101600.25;5089916;28;20139;-63
2021/08/20 09:24:37;;;;;;;39.08;21.25;;;;;;;21.80;73.42;101603.31;5080000;28;20284;-63
2021/08/20 09:27:25;;;;;;;41.60;21.33;;;;;;;21.84;75.12;101608.03;5093885;28;20130;-63
2021/08/20 09:30:08;;;;;;;46.35;22.83;;;;;;;21.85;75.20;101607.00;5081871;28;20083;-63
2021/08/20 09:32:41;;;;;;;41.85;22.92;;;;;;;21.90;74.58;101609.91;5085869;28;20499;-62
2021/08/20 09:35:08;;;;;;;45.65;23.33;;;;;;;22.15;74.30;101612.00;5082334;28;20043;-62
2021/08/20 09:37:38;;;;;;;42.45;22.77;;;;;;;22.29;74.11;101607.53;5089381;28;20447;-64
2021/08/20 09:40:12;;;;;;;35.83;19.35;;;;;;;22.30;74.35;101611.81;5084164;28;20138;-62
2021/08/20 09:42:39;;;;;;;46.60;20.23;;;;;;;22.38;72.85;101611.63;5085268;28;20087;-62
2021/08/20 09:45:22;;;;;;;37.97;20.02;;;;;;;22.47;73.41;101615.75;5085321;28;20132;-63
2021/08/20 09:47:54;;;;;;;37.15;18.30;;;;;;;22.35;72.82;101617.41;5066053;28;20108;-62
2021/08/20 09:50:38;;;;;;;31.85;17.30;;;;;;;22.32;71.78;101623.13;5085254;28;20168;-63
2021/08/20 09:53:15;;;;;;;28.50;16.30;;;;;;;22.59;71.65;101617.81;5085225;28;20667;-63
2021/08/20 09:55:43;;;;;;;31.35;15.85;;;;;;;22.57;71.83;101619.84;5075480;28;20040;-63
2021/08/20 09:58:13;;;;;;;35.33;16.90;;;;;;;22.80;70.48;101612.22;5078224;28;20126;-63
2021/08/20 10:00:41;;;;;;;31.20;17.13;;;;;;;22.86;70.82;101622.09;5088144;28;20090;-61
2021/08/20 10:03:13;;;;;;;29.15;16.52;;;;;;;22.99;70.26;101610.53;5079496;28;20067;-63
2021/08/20 10:05:39;;;;;;;25.42;14.65;;;;;;;23.01;70.98;101610.31;5090854;28;20043;-63
2021/08/20 10:08:09;;;;;;;28.30;14.68;;;;;;;22.65;69.90;101607.09;5080322;28;20617;-63
2021/08/20 10:10:41;;;;;;;24.95;14.65;;;;;;;22.39;69.38;101612.47;5096280;28;20055;-63
2021/08/20 10:13:10;;;;;;;26.27;14.10;;;;;;;22.61;69.43;101621.91;5082024;28;20139;-63
2021/08/20 10:15:36;;;;;;;;;;;;;;;22.81;70.14;101610.34;5088433;28;20160;-63
2021/08/20 10:18:05;;;;;;;25.50;14.35;;;;;;;23.05;68.11;101611.56;5072483;28;20032;-63
2021/08/20 10:20:35;;;;;;;27.98;15.20;;;;;;;23.40;68.63;101614.72;5062949;28;20159;-63
2021/08/20 10:23:02;;;;;;;33.53;16.40;;;;;;;23.26;66.48;101619.31;5090084;28;20052;-63
2021/08/20 10:25:30;;;;;;;32.20;15.90;;;;;;;23.42;68.62;101609.16;5082999;27;20456;-63
2021/08/20 10:27:57;;;;;;;25.70;14.15;;;;;;;23.44;67.20;101626.69;5100863;27;20143;-63
2021/08/20 10:30:24;;;;;;;26.25;14.57;;;;;;;23.39;68.45;101623.81;5079060;28;20374;-61
2021/08/20 10:33:06;;;;;;;21.95;11.68;;;;;;;23.21;66.18;101627.19;5083431;28;20074;-63
2021/08/20 10:35:53;;;;;;;22.17;10.45;;;;;;;23.05;64.90;101625.78;5089667;28;20147;-62
2021/08/20 10:38:30;;;;;;;16.05;9.30;;;;;;;23.03;63.17;101621.66;5084113;28;20146;-63
2021/08/20 10:41:13;;;;;;;18.20;9.15;;;;;;;22.70;64.26;101620.66;5089326;28;20683;-63
2021/08/20 10:44:21;;;;;;;17.67;9.43;;;;;;;22.59;66.35;101625.81;5069868;28;20052;-63
2021/08/20 10:46:50;;;;;;;;;;;;;;;22.69;63.49;101623.53;4998750;28;20045;-63
2021/08/20 10:49:21;;;;;;;17.30;9.10;;;;;;;22.50;64.87;101631.38;5062383;28;19923;-63
2021/08/20 10:51:48;;;;;;;15.55;7.38;;;;;;;22.74;64.33;101629.09;5085539;28;20360;-63
2021/08/20 10:54:22;;;;;;;13.63;7.25;;;;;;;22.72;66.33;101633.84;5087238;28;20082;-63
2021/08/20 10:56:48;;;;;;;18.65;8.60;;;;;;;22.58;65.26;101638.38;5082417;28;20131;-63
2021/08/20 10:59:37;;;;;;;16.13;7.72;;;;;;;23.10;63.58;101627.81;5080211;28;20051;-63
2021/08/20 11:02:39;;;;;;;10.98;5.88;;;;;;;22.99;63.11;101631.94;5083549;28;20047;-62
2021/08/20 11:05:14;;;;;;;13.32;5.57;;;;;;;23.21;62.51;101637.88;5084300;28;20101;-63
2021/08/20 11:07:47;;;;;;;9.00;4.68;;;;;;;23.46;62.37;101629.97;5092990;28;20220;-63
2021/08/20 11:10:13;;;;;;;9.90;5.07;;;;;;;23.76;62.32;101631.28;5082414;28;21047;-63
2021/08/20 11:13:10;;;;;;;8.68;5.13;;;;;;;23.66;59.30;101629.88;5083238;28;20526;-62
2021/08/20 11:15:48;;;;;;;10.93;5.93;;;;;;;23.61;59.42;101634.22;5091368;27;20126;-63